Flight Track Log - Related Links

Times and Time Zones

All times are in EDT time to prevent confusion due to time zone crossing. See the N762NC flight status page for this flight to view local times or setup timezone preferences in your user account.

Time Position Orientation Groundspeed Altitude Reporting Facility
EDT Latitude Longitude Course Direction KTS MPH feet Rate Location/Type
Sat 06:36:29 AM 34.3517 -77.9214 284° West 187 215 3,800  Level Washington Center
Sat 06:37:00 AM 34.2386 -78.3476 270° West  Level Estimated
Sat 06:37:31 AM 34.3417 -78.0017 261° West 203 234 6,200  Level Washington Center
Sat 06:38:00 AM 34.2304 -78.4588 270° West  Level Estimated
Sat 06:38:30 AM 34.3419 -78.0844 270° West 230 265 8,400  Level Washington Center
Sat 06:39:00 AM 34.2220 -78.5700 265° West  Level Estimated
Sat 06:40:00 AM 34.2452 -78.6817 284° West  Level FlightAware Approximate
Sat 06:40:02 AM 34.3344 -78.2308 266° West 266 306 11,000  Level Jacksonville Center
Sat 06:41:02 AM 34.3175 -78.3397 259° West 301 346 12,200 1,750 Climbing Jacksonville Center
Sat 06:42:02 AM 34.3047 -78.4508 262° West 330 380 14,500 2,100 Climbing Jacksonville Center
Sat 06:43:02 AM 34.3025 -78.5642 269° West 344 396 16,400 1,850 Climbing Jacksonville Center
Sat 06:44:02 AM 34.3003 -78.6800 269° West 344 396 18,200 1,650 Climbing Jacksonville Center
Sat 06:45:02 AM 34.2850 -78.7936 261° West 349 402 19,700 1,450 Climbing Jacksonville Center
Sat 06:46:02 AM 34.2700 -78.9100 261° West 349 402 21,100 1,450 Climbing Jacksonville Center
Sat 06:47:02 AM 34.2592 -79.0286 264° West 354 407 22,600 1,300 Climbing Jacksonville Center
Sat 06:48:02 AM 34.2503 -79.1494 265° West 354 407 23,700 1,100 Climbing Jacksonville Center
Sat 06:49:02 AM 34.2497 -79.2753 270° West 364 419 24,800 1,050 Climbing Jacksonville Center
Sat 06:50:02 AM 34.2514 -79.4006 271° West 370 426 25,800 1,350 Climbing Jacksonville Center
Sat 06:51:02 AM 34.2464 -79.5239 267° West 370 426 27,500 1,350 Climbing Jacksonville Center
Sat 06:52:02 AM 34.2492 -79.6319 272° West 365 420 28,500 1,000 Climbing Jacksonville Center
Sat 06:53:02 AM 34.2292 -79.7506 259° West 365 420 29,500 750 Climbing Jacksonville Center
Sat 06:54:02 AM 34.1986 -79.8647 252° West 365 420 30,000 200 Climbing Jacksonville Center
Sat 06:55:02 AM 34.1639 -79.9839 251° West 371 427 29,900 -50 Descending Jacksonville Center
Sat 06:56:02 AM 34.1269 -80.1056 250° West 376 433 29,900  Level Jacksonville Center
Sat 06:57:02 AM 34.1006 -80.2292 256° West 382 440 29,900  Level Jacksonville Center
Sat 06:58:02 AM 34.0758 -80.3553 257° West 388 447 29,900  Level Jacksonville Center
Sat 06:59:02 AM 34.0553 -80.4789 259° West 382 440 29,900  Level Jacksonville Center
Sat 07:00:02 AM 34.0411 -80.6044 262° West 382 440 29,900  Level Jacksonville Center
Sat 07:01:02 AM 34.0286 -80.7325 263° West 382 440 29,900  Level Jacksonville Center
Sat 07:02:02 AM 34.0142 -80.8733 263° West 389 448 29,900  Level Jacksonville Center
Sat 07:03:02 AM 34.0017 -80.9989 263° West 389 448 29,900 32 Level Jacksonville Center
Sat 07:05:07 AM 33.9461 -81.2392 254° West 374 430 30,000 32 Climbing Atlanta Center
Sat 07:06:07 AM 33.9069 -81.3631 249° West 388 447 30,000  Level Atlanta Center
Sat 07:07:07 AM 33.8700 -81.4819 250° West 393 452 30,000  Level Atlanta Center
Sat 07:08:07 AM 33.8328 -81.6031 250° West 393 452 30,000  Level Atlanta Center
Sat 07:09:07 AM 33.7975 -81.7264 251° West 393 452 30,000  Level Atlanta Center
Sat 07:10:07 AM 33.7664 -81.8522 253° West 393 452 30,000  Level Atlanta Center
Sat 07:11:07 AM 33.7414 -81.9803 257° West 393 452 30,000  Level Atlanta Center
Sat 07:12:07 AM 33.7206 -82.1083 259° West 393 452 30,000  Level Atlanta Center
Sat 07:13:07 AM 33.6808 -82.2314 249° West 393 452 30,000 -200 Level Atlanta Center
Sat 07:14:07 AM 33.6303 -82.3522 243° Southwest 414 476 29,600 -700 Descending Atlanta Center
Sat 07:15:07 AM 33.5714 -82.4681 239° Southwest 413 475 28,600 -1,000 Descending Atlanta Center
Sat 07:16:07 AM 33.5103 -82.5889 239° Southwest 419 482 27,600 -950 Descending Atlanta Center
Sat 07:17:07 AM 33.4656 -82.7142 247° West 414 476 26,700 -900 Descending Atlanta Center
Sat 07:18:07 AM 33.4231 -82.8442 249° West 419 482 25,800 -900 Descending Atlanta Center
Sat 07:19:07 AM 33.3847 -82.9814 252° West 405 466 24,900 -750 Descending Atlanta Center
Sat 07:20:07 AM 33.3336 -83.0964 242° Southwest 399 459 24,300 -450 Descending Atlanta Center
Sat 07:21:07 AM 33.2864 -83.2089 243° Southwest 388 447 24,000 -750 Descending Atlanta Center
Sat 07:22:07 AM 33.2389 -83.3161 242° Southwest 378 435 22,800 -2,000 Descending Atlanta Center
Sat 07:23:07 AM 33.1917 -83.4256 243° Southwest 373 429 20,000 -2,900 Descending Atlanta Center
Sat 07:24:07 AM 33.1544 -83.5228 245° Southwest 347 399 17,000 -3,000 Descending Atlanta Center
Sat 07:25:07 AM 33.1194 -83.6247 248° West 341 392 14,000 -2,150 Descending Atlanta Center
Sat 07:26:07 AM 33.1781 -83.7161 307° West 311 358 12,700 -950 Descending Atlanta Center
Sat 07:27:07 AM 33.2408 -83.7906 315° West 315 362 12,100 -850 Descending Atlanta Center
Sat 07:28:07 AM 33.2806 -83.8575 305° West 299 344 11,000 -1,450 Descending Atlanta Center
Sat 07:29:07 AM 33.3119 -83.9369 295° West 273 314 9,200 -1,400 Descending Atlanta Center
Sat 07:30:07 AM 33.3517 -84.0064 304° West 253 291 8,200 -1,450 Descending Atlanta Center
Sat 07:31:07 AM 33.4311 -84.0239 350° North 246 283 6,300 -1,700 Descending Atlanta Center
Sat 07:32:07 AM 33.5083 -84.0514 343° North 264 304 4,800 -1,300 Descending Atlanta Center
Sat 07:33:07 AM 33.5647 -84.1036 322° Northwest 259 298 3,700 -887 Descending Atlanta Center
Sat 07:34:02 AM 33.6000 -84.1667 304° West 219 252 3,100 -417 Descending Atlanta TRACON
Sat 07:35:02 AM 33.6167 -84.2167 292° West 184 212 2,900 -150 Descending Atlanta TRACON
Sat 07:36:02 AM 33.6333 -84.2833 287° West 167 192 2,800 -238 Descending Atlanta TRACON
Sat 07:37:08 AM 33.6333 -84.3333 270° West 156 180 2,400 -571 Descending Atlanta TRACON
Sat 07:38:08 AM 33.6333 -84.3833 270° West 134 154 1,600 -800 Descending Atlanta TRACON

Login

Don't have an account? Register now (free) for customized features, flight alerts, and more!